Time;durP1;ratioP1;P1;durP2;ratioP2;P2;SDS_P1;SDS_P2;PMS_P1;PMS_P2;Temp;Humidity;BMP_temperature;BMP_pressure;BME280_temperature;BME280_humidity;BME280_pressure;Samples;Min_cycle;Max_cycle;Signal;HPM_P1;HPM_P2
2023/07/04 00:00:37;;;;;;;5.68;2.30;;;11.60;99.90;;;;;;5052411;28;20036;-72
2023/07/04 00:03:03;;;;;;;16.23;2.75;;;11.60;99.90;;;;;;5053413;28;20063;-71
2023/07/04 00:05:29;;;;;;;6.72;2.35;;;11.60;99.90;;;;;;5052264;28;20045;-74
2023/07/04 00:07:54;;;;;;;4.93;2.22;;;11.60;99.90;;;;;;5053140;28;20028;-72
2023/07/04 00:10:20;;;;;;;6.65;2.03;;;11.60;99.90;;;;;;5052349;28;20070;-72
2023/07/04 00:12:46;;;;;;;11.10;2.85;;;11.50;99.90;;;;;;5052390;28;20036;-71
2023/07/04 00:15:13;;;;;;;8.43;2.80;;;11.50;99.90;;;;;;5052352;28;20032;-72
2023/07/04 00:17:39;;;;;;;9.63;2.38;;;11.50;99.90;;;;;;5052499;28;20466;-72
2023/07/04 00:20:06;;;;;;;10.40;2.55;;;11.50;99.90;;;;;;5052576;28;20029;-71
2023/07/04 00:22:33;;;;;;;10.75;2.60;;;11.50;99.90;;;;;;5052303;28;20116;-73
2023/07/04 00:24:59;;;;;;;11.57;2.95;;;11.40;99.90;;;;;;5052737;28;20355;-72
2023/07/04 00:27:25;;;;;;;11.48;2.30;;;11.50;99.90;;;;;;5050351;28;20087;-72
2023/07/04 00:29:51;;;;;;;9.50;3.08;;;11.50;99.90;;;;;;5052119;28;20370;-72
2023/07/04 00:32:16;;;;;;;7.60;2.70;;;11.50;99.90;;;;;;5052239;28;20431;-72
2023/07/04 00:34:45;;;;;;;9.27;2.42;;;11.50;99.90;;;;;;5051839;28;20117;-72
2023/07/04 00:37:12;;;;;;;8.30;2.42;;;11.50;99.90;;;;;;5052154;28;20025;-72
2023/07/04 00:39:37;;;;;;;8.20;2.58;;;11.50;99.90;;;;;;5051843;28;20159;-73
2023/07/04 00:42:08;;;;;;;7.20;2.30;;;11.50;99.90;;;;;;5052185;28;20473;-73
2023/07/04 00:44:37;;;;;;;5.28;2.25;;;11.40;99.90;;;;;;5051845;28;20060;-73
2023/07/04 00:47:21;;;;;;;7.30;2.50;;;11.40;99.90;;;;;;5052116;28;20033;-72
2023/07/04 00:49:56;;;;;;;7.32;2.78;;;11.40;99.90;;;;;;5051813;28;20029;-73
2023/07/04 00:52:31;;;;;;;8.73;2.10;;;11.40;99.90;;;;;;5052000;28;20120;-72
2023/07/04 00:55:04;;;;;;;7.03;2.22;;;11.40;99.90;;;;;;5051929;28;20033;-72
2023/07/04 00:57:31;;;;;;;9.40;2.67;;;11.40;99.90;;;;;;5051742;28;20029;-72
2023/07/04 01:00:01;;;;;;;4.82;2.33;;;11.40;99.90;;;;;;5051730;28;20032;-72
2023/07/04 01:02:33;;;;;;;10.40;2.70;;;11.40;99.90;;;;;;5050723;28;20029;-72
2023/07/04 01:05:00;;;;;;;4.28;2.22;;;11.30;99.90;;;;;;5052047;28;20033;-72
2023/07/04 01:07:38;;;;;;;7.05;2.50;;;11.30;99.90;;;;;;5050378;28;20036;-72
2023/07/04 01:10:20;;;;;;;9.18;2.55;;;11.30;99.90;;;;;;5052065;28;20079;-72
2023/07/04 01:12:46;;;;;;;12.02;2.63;;;11.30;99.90;;;;;;5051900;28;20032;-73
2023/07/04 01:15:12;;;;;;;10.88;2.83;;;11.30;99.90;;;;;;5052051;28;20052;-72
2023/07/04 01:17:41;;;;;;;6.85;2.70;;;11.30;99.90;;;;;;5051369;28;20025;-72
2023/07/04 01:20:09;;;;;;;11.05;3.03;;;11.30;99.90;;;;;;5051775;28;20035;-72
2023/07/04 01:22:43;;;;;;;7.22;2.78;;;11.30;99.90;;;;;;5051174;28;20025;-74
2023/07/04 01:25:33;;;;;;;7.15;2.30;;;11.30;99.90;;;;;;5051530;28;20028;-72
2023/07/04 01:28:02;;;;;;;7.57;2.30;;;11.30;99.90;;;;;;5051872;28;20029;-72
2023/07/04 01:30:31;;;;;;;7.70;2.80;;;11.30;99.90;;;;;;5033977;28;20485;-72
2023/07/04 01:32:59;;;;;;;5.28;2.45;;;11.20;99.90;;;;;;5051137;28;20028;-72
2023/07/04 01:35:26;;;;;;;9.43;2.65;;;11.20;99.90;;;;;;5049945;28;20048;-72
2023/07/04 01:37:52;;;;;;;7.65;2.53;;;11.20;99.90;;;;;;5050976;28;20027;-73
2023/07/04 01:40:18;;;;;;;10.98;2.78;;;11.20;99.90;;;;;;5051606;28;20025;-73
2023/07/04 01:42:44;;;;;;;12.93;2.83;;;11.10;99.90;;;;;;5050862;28;20445;-73
2023/07/04 01:45:10;;;;;;;8.70;2.63;;;11.10;99.90;;;;;;5051413;28;20340;-72
2023/07/04 01:47:36;;;;;;;6.18;2.65;;;11.00;99.90;;;;;;5051000;28;20102;-75
2023/07/04 01:50:04;;;;;;;7.68;2.03;;;11.00;99.90;;;;;;5051060;28;20082;-73
2023/07/04 01:52:30;;;;;;;7.55;2.70;;;11.00;99.90;;;;;;5051337;28;20431;-73
2023/07/04 01:54:56;;;;;;;11.07;2.80;;;11.00;99.90;;;;;;5050932;28;20032;-72
2023/07/04 01:57:22;;;;;;;9.27;2.50;;;11.00;99.90;;;;;;5051176;28;20104;-72
2023/07/04 01:59:48;;;;;;;9.02;2.72;;;11.00;99.90;;;;;;5050979;28;20103;-73
2023/07/04 02:02:14;;;;;;;16.50;3.08;;;11.00;99.90;;;;;;5051359;28;20083;-73
2023/07/04 02:04:40;;;;;;;6.78;2.50;;;11.00;99.90;;;;;;5050362;28;20033;-72
2023/07/04 02:07:06;;;;;;;5.78;2.30;;;11.10;99.90;;;;;;5050837;28;20158;-73
2023/07/04 02:09:32;;;;;;;14.30;3.33;;;11.10;99.90;;;;;;5050905;28;20136;-72
2023/07/04 02:11:58;;;;;;;10.65;2.80;;;11.00;99.90;;;;;;5050589;28;20474;-72
2023/07/04 02:14:24;;;;;;;8.07;2.78;;;11.00;99.90;;;;;;5049824;28;20508;-73
2023/07/04 02:16:51;;;;;;;10.57;2.33;;;11.00;99.90;;;;;;5050391;28;20530;-73
2023/07/04 02:19:16;;;;;;;7.63;2.40;;;11.00;99.90;;;;;;5051127;28;20051;-72
2023/07/04 02:21:42;;;;;;;7.75;2.42;;;11.00;99.90;;;;;;5050435;28;20108;-72
2023/07/04 02:24:08;;;;;;;10.90;2.55;;;11.00;99.90;;;;;;5050934;28;20037;-72
2023/07/04 02:26:34;;;;;;;8.95;2.85;;;11.00;99.90;;;;;;5049179;28;20382;-72
2023/07/04 02:29:00;;;;;;;10.73;2.72;;;11.00;99.90;;;;;;5050034;28;20405;-72
2023/07/04 02:31:26;;;;;;;8.55;2.47;;;11.00;99.90;;;;;;5050738;28;20029;-72
2023/07/04 02:33:52;;;;;;;8.23;2.85;;;11.00;99.90;;;;;;5050224;28;20716;-73
2023/07/04 02:36:19;;;;;;;10.63;2.85;;;11.00;99.90;;;;;;5050809;28;20025;-73
2023/07/04 02:38:45;;;;;;;5.30;2.45;;;11.00;99.90;;;;;;5050179;28;20053;-72
2023/07/04 02:41:11;;;;;;;11.93;3.03;;;11.00;99.90;;;;;;5050543;28;20083;-73
2023/07/04 02:43:37;;;;;;;11.27;2.58;;;10.90;99.90;;;;;;5050745;28;20025;-74
2023/07/04 02:46:04;;;;;;;8.75;2.50;;;10.90;99.90;;;;;;5050125;28;20394;-72
2023/07/04 02:48:31;;;;;;;7.63;2.47;;;10.90;99.90;;;;;;5050708;28;20414;-73
2023/07/04 02:50:57;;;;;;;10.55;2.97;;;10.90;99.90;;;;;;5054317;28;20087;-72
2023/07/04 02:53:23;;;;;;;5.35;2.33;;;10.90;99.90;;;;;;5057339;28;20296;-72
2023/07/04 02:55:50;;;;;;;10.68;2.40;;;10.90;99.90;;;;;;5056865;28;20108;-72
2023/07/04 02:58:16;;;;;;;12.57;2.50;;;10.90;99.90;;;;;;5057259;28;20382;-73
2023/07/04 03:00:42;;;;;;;6.68;2.70;;;10.90;99.90;;;;;;5056587;28;20029;-72
2023/07/04 03:03:09;;;;;;;8.55;2.50;;;10.90;99.90;;;;;;5057200;28;20462;-73
2023/07/04 03:05:36;;;;;;;9.38;2.63;;;10.90;99.90;;;;;;5057159;28;20021;-72
2023/07/04 03:08:02;;;;;;;10.23;2.75;;;10.90;99.90;;;;;;5056597;28;20056;-73
2023/07/04 03:10:28;;;;;;;10.52;3.35;;;10.90;99.90;;;;;;5057135;28;20100;-73
2023/07/04 03:12:54;;;;;;;8.00;2.90;;;10.90;99.90;;;;;;5056566;28;20110;-73
2023/07/04 03:15:20;;;;;;;8.57;2.45;;;10.90;99.90;;;;;;5056985;28;20036;-72
2023/07/04 03:17:46;;;;;;;9.13;3.08;;;10.80;99.90;;;;;;5056413;28;20116;-73
2023/07/04 03:20:12;;;;;;;8.07;2.35;;;10.80;99.90;;;;;;5057304;28;20108;-72
2023/07/04 03:22:39;;;;;;;11.23;2.92;;;10.80;99.90;;;;;;5057596;28;20031;-72
2023/07/04 03:25:06;;;;;;;6.55;2.83;;;10.80;99.90;;;;;;5057159;28;20032;-72
2023/07/04 03:27:32;;;;;;;11.38;3.17;;;10.80;99.90;;;;;;5055618;28;20424;-72
2023/07/04 03:29:58;;;;;;;12.52;3.67;;;10.80;99.90;;;;;;5056177;28;20049;-73
2023/07/04 03:32:24;;;;;;;11.70;2.60;;;10.80;99.90;;;;;;5056858;28;20025;-72
2023/07/04 03:34:50;;;;;;;9.95;2.90;;;10.80;99.90;;;;;;5056293;28;20043;-73
2023/07/04 03:37:17;;;;;;;9.48;2.58;;;10.80;99.90;;;;;;5056506;28;20040;-72
2023/07/04 03:39:42;;;;;;;7.32;2.50;;;10.80;99.90;;;;;;5056195;28;20051;-75
2023/07/04 03:42:08;;;;;;;8.52;2.83;;;10.80;99.90;;;;;;5056513;28;20040;-72
2023/07/04 03:44:34;;;;;;;10.60;3.20;;;10.80;99.90;;;;;;5055180;28;20124;-72
2023/07/04 03:47:00;;;;;;;7.75;2.40;;;10.80;99.90;;;;;;5055907;28;20025;-72
2023/07/04 03:49:26;;;;;;;9.63;2.85;;;10.80;99.90;;;;;;5056652;28;20413;-72
2023/07/04 03:51:52;;;;;;;6.07;2.67;;;10.80;99.90;;;;;;5055855;28;20029;-72
2023/07/04 03:54:18;;;;;;;6.95;2.70;;;10.80;99.90;;;;;;5056241;28;20082;-72
2023/07/04 03:56:43;;;;;;;10.00;2.55;;;10.90;99.90;;;;;;5056181;28;20048;-74
2023/07/04 03:59:09;;;;;;;12.75;2.83;;;10.80;99.90;;;;;;5056120;28;20178;-72
2023/07/04 04:01:35;;;;;;;10.55;2.58;;;10.80;99.90;;;;;;5054782;28;20025;-72
2023/07/04 04:04:01;;;;;;;10.15;2.95;;;10.80;99.90;;;;;;5052273;28;20332;-72
2023/07/04 04:06:26;;;;;;;10.82;2.80;;;10.80;99.90;;;;;;5053027;28;20029;-72
2023/07/04 04:08:52;;;;;;;9.32;2.72;;;10.90;99.90;;;;;;5052632;28;20033;-72
2023/07/04 04:11:18;;;;;;;11.90;2.90;;;10.90;99.90;;;;;;5053458;28;20025;-72
2023/07/04 04:13:44;;;;;;;7.57;2.58;;;10.90;99.90;;;;;;5051513;28;20029;-75
2023/07/04 04:16:10;;;;;;;21.55;3.38;;;10.90;99.90;;;;;;5053005;28;20025;-72
2023/07/04 04:18:36;;;;;;;6.75;2.47;;;10.80;99.90;;;;;;5052960;28;20021;-72
2023/07/04 04:21:01;;;;;;;11.77;2.40;;;10.80;99.90;;;;;;5052469;28;20124;-72
2023/07/04 04:23:27;;;;;;;9.57;2.92;;;10.80;99.90;;;;;;5053026;28;20408;-72
2023/07/04 04:25:53;;;;;;;11.55;3.42;;;10.80;99.90;;;;;;5052321;28;20112;-72
2023/07/04 04:28:18;;;;;;;8.13;2.67;;;10.80;99.90;;;;;;5052417;28;20037;-72
2023/07/04 04:30:44;;;;;;;10.10;2.60;;;10.80;99.90;;;;;;5052587;28;20033;-74
2023/07/04 04:33:10;;;;;;;10.38;2.60;;;10.90;99.90;;;;;;5052108;28;20466;-72
2023/07/04 04:35:39;;;;;;;8.23;2.53;;;10.90;99.90;;;;;;5052563;28;20032;-72
2023/07/04 04:38:06;;;;;;;7.85;2.80;;;10.90;99.90;;;;;;5052080;28;20029;-72
2023/07/04 04:40:33;;;;;;;6.82;2.20;;;10.90;99.90;;;;;;5052378;28;20033;-72
2023/07/04 04:42:58;;;;;;;8.70;2.60;;;10.90;99.90;;;;;;5051770;28;20070;-72
2023/07/04 04:45:24;;;;;;;9.95;2.42;;;10.90;99.90;;;;;;5052023;28;20045;-72
2023/07/04 04:47:53;;;;;;;5.88;2.28;;;10.90;99.90;;;;;;5051835;28;20033;-72
2023/07/04 04:50:23;;;;;;;11.38;2.70;;;10.90;99.90;;;;;;5052273;28;20082;-73
2023/07/04 04:52:50;;;;;;;9.93;2.50;;;11.00;99.90;;;;;;5051919;28;20663;-74
2023/07/04 04:55:16;;;;;;;12.05;2.50;;;11.10;99.90;;;;;;5052263;28;20059;-73
2023/07/04 04:57:42;;;;;;;9.93;2.42;;;11.30;99.90;;;;;;5052113;28;20029;-74
2023/07/04 05:00:10;;;;;;;10.52;2.22;;;11.40;99.90;;;;;;5050616;28;20307;-73
2023/07/04 05:02:36;;;;;;;8.77;2.10;;;11.50;99.90;;;;;;5052684;28;20029;-73
2023/07/04 05:05:02;;;;;;;5.55;2.10;;;11.70;99.90;;;;;;5051476;28;20033;-73
2023/07/04 05:07:29;;;;;;;6.38;2.25;;;11.80;99.90;;;;;;5052320;28;20033;-72
2023/07/04 05:09:57;;;;;;;6.30;2.20;;;11.90;99.90;;;;;;5051713;28;20086;-73
2023/07/04 05:12:24;;;;;;;4.97;2.20;;;12.00;99.90;;;;;;5052182;28;20124;-73
2023/07/04 05:14:49;;;;;;;5.82;2.05;;;12.10;99.90;;;;;;5049932;28;20037;-75
2023/07/04 05:17:16;;;;;;;7.35;2.10;;;12.20;99.90;;;;;;5052435;28;20075;-73
2023/07/04 05:19:42;;;;;;;5.38;2.00;;;12.20;99.90;;;;;;5051887;28;20059;-73
2023/07/04 05:22:08;;;;;;;6.32;2.00;;;12.30;99.90;;;;;;5051386;28;20020;-73
2023/07/04 05:24:34;;;;;;;9.80;2.30;;;12.30;99.90;;;;;;5051412;28;20033;-73
2023/07/04 05:27:00;;;;;;;6.32;2.10;;;12.40;99.90;;;;;;5051419;28;20032;-73
2023/07/04 05:29:26;;;;;;;8.43;2.22;;;12.50;99.90;;;;;;5051422;28;20053;-71
2023/07/04 05:31:51;;;;;;;8.43;2.40;;;12.60;99.90;;;;;;5051279;28;20178;-74
2023/07/04 05:34:17;;;;;;;9.82;2.13;;;12.70;99.90;;;;;;5051474;28;20032;-71
2023/07/04 05:36:43;;;;;;;6.07;2.35;;;12.80;99.90;;;;;;5051352;28;20029;-71
2023/07/04 05:39:09;;;;;;;11.05;2.17;;;12.80;99.90;;;;;;5051142;28;20096;-71
2023/07/04 05:41:36;;;;;;;7.50;2.20;;;12.90;99.90;;;;;;5050699;28;20025;-71
2023/07/04 05:44:07;;;;;;;9.45;2.60;;;12.80;99.90;;;;;;5050572;28;20063;-71
2023/07/04 05:46:35;;;;;;;8.23;2.22;;;12.90;99.90;;;;;;5051379;28;20025;-71
2023/07/04 05:49:01;;;;;;;6.30;1.83;;;13.00;99.90;;;;;;5050635;28;20108;-71
2023/07/04 05:51:29;;;;;;;5.63;1.90;;;13.00;99.90;;;;;;5050820;28;20029;-71
2023/07/04 05:53:55;;;;;;;5.28;1.75;;;13.10;99.90;;;;;;5051378;28;20029;-72
2023/07/04 05:56:27;;;;;;;12.00;2.47;;;13.20;99.90;;;;;;5051295;28;20025;-72
2023/07/04 05:58:58;;;;;;;7.25;1.95;;;13.20;99.90;;;;;;5050667;28;20386;-72
2023/07/04 06:01:35;;;;;;;9.05;1.75;;;13.20;99.90;;;;;;5051138;28;20032;-71
2023/07/04 06:04:04;;;;;;;9.77;2.13;;;13.30;99.90;;;;;;5050576;28;20359;-72
2023/07/04 06:06:41;;;;;;;7.10;2.13;;;13.40;99.90;;;;;;5050302;28;20025;-71
2023/07/04 06:09:12;;;;;;;6.93;2.05;;;13.50;99.90;;;;;;5049998;28;20099;-71
2023/07/04 06:11:43;;;;;;;9.73;2.20;;;13.50;99.90;;;;;;5050729;28;20028;-71
2023/07/04 06:14:09;;;;;;;8.05;2.08;;;13.50;99.90;;;;;;5049895;28;20045;-71
2023/07/04 06:16:36;;;;;;;5.53;1.98;;;13.70;99.90;;;;;;5050432;28;20021;-71
2023/07/04 06:19:02;;;;;;;6.63;1.83;;;13.80;99.90;;;;;;5049898;28;20029;-72
2023/07/04 06:21:28;;;;;;;9.45;2.17;;;13.90;99.90;;;;;;5050532;28;20078;-72
2023/07/04 06:23:56;;;;;;;8.10;2.03;;;13.90;99.90;;;;;;5049770;28;20451;-74
2023/07/04 06:26:22;;;;;;;7.88;1.90;;;13.90;99.90;;;;;;5048439;28;20318;-72
2023/07/04 06:28:49;;;;;;;6.97;1.80;;;13.90;99.90;;;;;;5050398;28;20048;-72
2023/07/04 06:31:17;;;;;;;8.07;1.98;;;14.00;99.90;;;;;;5050105;28;20109;-71
2023/07/04 06:33:43;;;;;;;6.55;1.88;;;14.00;99.90;;;;;;5050337;28;20119;-73
2023/07/04 06:36:10;;;;;;;11.55;2.00;;;14.10;99.90;;;;;;5049781;28;20099;-73
2023/07/04 06:38:36;;;;;;;7.90;1.83;;;14.10;99.90;;;;;;5050003;28;20063;-72
2023/07/04 06:41:05;;;;;;;5.22;1.77;;;14.20;99.90;;;;;;5049740;28;20064;-72
2023/07/04 06:43:32;;;;;;;8.25;2.03;;;14.20;99.90;;;;;;5050025;28;20108;-72
2023/07/04 06:45:59;;;;;;;8.13;1.50;;;14.30;99.90;;;;;;5049785;28;20121;-73
2023/07/04 06:48:26;;;;;;;11.50;2.63;;;14.40;99.90;;;;;;5050126;28;20102;-72
2023/07/04 06:51:15;;;;;;;9.35;2.35;;;14.40;99.90;;;;;;5050456;28;20050;-73
2023/07/04 06:53:41;;;;;;;7.43;1.70;;;14.50;99.90;;;;;;5050236;28;20025;-72
2023/07/04 06:56:12;;;;;;;7.28;1.90;;;14.50;99.90;;;;;;5049417;28;20328;-72
2023/07/04 06:58:42;;;;;;;6.85;1.90;;;14.70;99.90;;;;;;5049697;28;20427;-71
2023/07/04 07:01:10;;;;;;;4.28;1.73;;;14.80;99.90;;;;;;5049203;28;20032;-73
2023/07/04 07:03:36;;;;;;;8.07;2.00;;;14.90;99.90;;;;;;5049916;28;20036;-72
2023/07/04 07:06:04;;;;;;;5.32;1.80;;;15.10;99.90;;;;;;5049585;28;20037;-72
2023/07/04 07:08:30;;;;;;;7.28;1.88;;;15.10;99.90;;;;;;5050144;28;20043;-72
2023/07/04 07:11:01;;;;;;;5.85;1.98;;;15.10;99.90;;;;;;5048886;28;20099;-75
2023/07/04 07:13:28;;;;;;;7.85;2.03;;;15.10;99.90;;;;;;5050078;28;20017;-73
2023/07/04 07:16:05;;;;;;;4.70;1.83;;;15.20;99.90;;;;;;5050205;28;20105;-73
2023/07/04 07:18:33;;;;;;;12.48;2.28;;;15.20;99.90;;;;;;5050292;28;20060;-72
2023/07/04 07:21:01;;;;;;;5.70;1.73;;;15.40;99.90;;;;;;5049814;28;20420;-74
2023/07/04 07:23:27;;;;;;;7.35;1.83;;;15.40;99.90;;;;;;5050061;28;20327;-73
2023/07/04 07:26:00;;;;;;;7.43;2.10;;;15.40;99.90;;;;;;5050261;28;20040;-73
2023/07/04 07:28:28;;;;;;;6.65;1.98;;;15.50;99.90;;;;;;5049585;28;20049;-73
2023/07/04 07:31:08;;;;;;;6.80;1.90;;;15.70;99.90;;;;;;5049937;28;20017;-73
2023/07/04 07:33:36;;;;;;;5.13;1.63;;;15.80;99.90;;;;;;5049600;28;20025;-73
2023/07/04 07:36:14;;;;;;;9.70;2.22;;;15.90;99.90;;;;;;5049320;28;20025;-72
2023/07/04 07:38:40;;;;;;;5.90;1.52;;;16.00;99.90;;;;;;5053362;28;20490;-72
2023/07/04 07:41:07;;;;;;;5.43;1.80;;;16.00;99.90;;;;;;5052647;28;20036;-72
2023/07/04 07:43:34;;;;;;;5.00;2.03;;;16.10;99.90;;;;;;5053527;28;20025;-72
2023/07/04 07:46:00;;;;;;;6.43;2.20;;;16.20;99.90;;;;;;5053289;28;20037;-72
2023/07/04 07:48:27;;;;;;;7.35;2.15;;;16.10;99.90;;;;;;5053534;28;20025;-72
2023/07/04 07:50:53;;;;;;;7.05;2.00;;;16.20;99.90;;;;;;5053269;28;20033;-73
2023/07/04 07:53:19;;;;;;;7.10;2.13;;;16.20;99.90;;;;;;5051887;28;20043;-72
2023/07/04 07:55:44;;;;;;;8.48;2.08;;;16.20;99.90;;;;;;5053148;28;20029;-72
2023/07/04 07:58:10;;;;;;;6.35;2.13;;;16.20;99.90;;;;;;5052548;28;20472;-73
2023/07/04 08:00:36;;;;;;;4.97;1.70;;;16.30;99.90;;;;;;5052567;28;20056;-72
2023/07/04 08:03:02;;;;;;;5.55;1.90;;;16.40;99.90;;;;;;5052567;28;20028;-72
2023/07/04 08:05:28;;;;;;;4.88;1.55;;;16.50;99.90;;;;;;5052573;28;20390;-73
2023/07/04 08:07:53;;;;;;;6.60;2.30;;;16.60;99.90;;;;;;5053332;28;20099;-73
2023/07/04 08:10:19;;;;;;;8.70;1.83;;;16.50;99.90;;;;;;5052675;28;20072;-73
2023/07/04 08:12:45;;;;;;;3.75;1.80;;;16.60;99.90;;;;;;5052775;28;20066;-72
2023/07/04 08:15:11;;;;;;;12.30;2.00;;;16.60;99.90;;;;;;5052032;28;20032;-71
2023/07/04 08:17:37;;;;;;;5.03;1.70;;;16.70;99.90;;;;;;5052069;28;20363;-72
2023/07/04 08:20:05;;;;;;;5.40;1.67;;;16.70;99.90;;;;;;5051927;28;20036;-72
2023/07/04 08:22:31;;;;;;;5.72;1.60;;;16.50;99.90;;;;;;5051887;28;20037;-72
2023/07/04 08:24:58;;;;;;;7.82;1.67;;;16.50;99.90;;;;;;5051263;28;20474;-72
2023/07/04 08:27:25;;;;;;;5.72;1.70;;;16.50;99.90;;;;;;5051085;28;20028;-72
2023/07/04 08:29:51;;;;;;;8.45;1.75;;;16.50;99.90;;;;;;5051394;28;20048;-72
2023/07/04 08:32:20;;;;;;;5.65;1.67;;;16.70;99.90;;;;;;5051181;28;20036;-72
2023/07/04 08:34:46;;;;;;;6.28;2.10;;;16.70;99.90;;;;;;5051783;28;20167;-72
2023/07/04 08:37:13;;;;;;;5.32;2.10;;;16.90;99.90;;;;;;5050650;28;20070;-72
2023/07/04 08:39:46;;;;;;;7.25;1.98;;;17.10;99.90;;;;;;5050775;28;20118;-72
2023/07/04 08:42:14;;;;;;;6.40;1.80;;;17.20;99.90;;;;;;5051005;28;20036;-73
2023/07/04 08:44:46;;;;;;;7.07;1.88;;;17.30;99.90;;;;;;5052374;28;20033;-72
2023/07/04 08:47:14;;;;;;;7.75;1.73;;;17.40;99.90;;;;;;5051560;28;20036;-72
2023/07/04 08:49:55;;;;;;;4.05;1.38;;;17.60;99.90;;;;;;5051331;28;20112;-72
2023/07/04 08:52:30;;;;;;;4.50;1.75;;;17.70;99.90;;;;;;5051638;28;20262;-72
2023/07/04 08:54:56;;;;;;;6.65;1.70;;;17.50;99.90;;;;;;5052276;28;20025;-72
2023/07/04 08:57:45;;;;;;;4.22;1.55;;;17.60;99.90;;;;;;5051483;28;20272;-72
2023/07/04 09:00:20;;;;;;;4.40;1.55;;;17.50;99.90;;;;;;5043816;28;20120;-72
2023/07/04 09:03:17;;;;;;;5.30;1.60;;;17.60;99.90;;;;;;5052067;28;20097;-73
2023/07/04 09:05:51;;;;;;;5.47;1.63;;;17.60;99.90;;;;;;5036901;28;20037;-73
2023/07/04 09:08:23;;;;;;;7.88;1.95;;;17.50;99.90;;;;;;5052017;28;20025;-72
2023/07/04 09:10:56;;;;;;;5.93;1.70;;;17.50;99.90;;;;;;5051549;28;20024;-71
2023/07/04 09:13:24;;;;;;;5.28;1.58;;;17.60;99.90;;;;;;5050779;28;20250;-71
2023/07/04 09:15:53;;;;;;;5.97;2.00;;;17.70;99.90;;;;;;5051698;28;20028;-71
2023/07/04 09:18:44;;;;;;;5.68;1.88;;;17.70;99.90;;;;;;5051043;28;20021;-72
2023/07/04 09:21:22;;;;;;;2.50;1.30;;;17.80;99.90;;;;;;5050901;28;20136;-72
2023/07/04 09:23:50;;;;;;;6.45;1.85;;;17.60;99.90;;;;;;5051427;28;20036;-71
2023/07/04 09:26:20;;;;;;;5.15;2.03;;;17.60;99.90;;;;;;5051119;28;20071;-72
2023/07/04 09:28:48;;;;;;;3.75;1.85;;;17.70;99.90;;;;;;5051744;28;20037;-72
2023/07/04 09:31:18;;;;;;;4.10;1.63;;;17.90;99.90;;;;;;5051053;28;20130;-72
2023/07/04 09:33:47;;;;;;;6.28;1.65;;;17.90;99.90;;;;;;5050908;28;20355;-72
2023/07/04 09:36:15;;;;;;;4.57;1.70;;;18.00;99.90;;;;;;5050205;28;20036;-72
2023/07/04 09:39:10;;;;;;;4.60;1.90;;;18.10;99.90;;;;;;5050812;28;20029;-72
2023/07/04 09:41:39;;;;;;;9.55;1.67;;;18.30;99.90;;;;;;5041498;28;20056;-72
2023/07/04 09:44:11;;;;;;;3.13;1.30;;;18.50;99.90;;;;;;5050669;28;20094;-74
2023/07/04 09:46:38;;;;;;;2.15;1.20;;;18.60;99.90;;;;;;5050851;28;20029;-73
2023/07/04 09:49:27;;;;;;;2.20;1.48;;;18.80;99.90;;;;;;5050504;28;20029;-72
2023/07/04 09:52:09;;;;;;;6.13;1.83;;;18.90;99.90;;;;;;5048977;28;20108;-72
2023/07/04 09:54:39;;;;;;;;;;;19.10;99.90;;;;;;5050569;28;20091;-72
2023/07/04 09:57:34;;;;;;;2.97;1.45;;;19.00;99.90;;;;;;5049647;28;20016;-73
2023/07/04 10:00:17;;;;;;;3.08;1.40;;;19.00;99.90;;;;;;5035039;28;20060;-72
2023/07/04 10:02:44;;;;;;;3.28;1.45;;;19.00;99.90;;;;;;5050910;28;20040;-72
2023/07/04 10:05:10;;;;;;;5.10;2.05;;;18.90;99.90;;;;;;5050667;28;20091;-72
2023/07/04 10:07:37;;;;;;;5.03;1.50;;;18.80;99.90;;;;;;5050973;28;20132;-72
2023/07/04 10:10:07;;;;;;;7.57;1.67;;;18.90;99.90;;;;;;5050457;28;20040;-72
2023/07/04 10:12:51;;;;;;;5.13;1.90;;;18.80;99.90;;;;;;5050478;28;20033;-72
2023/07/04 10:15:25;;;;;;;5.40;1.60;;;18.70;99.90;;;;;;5050457;28;20025;-72
2023/07/04 10:17:51;;;;;;;5.32;1.30;;;18.70;99.90;;;;;;5050528;28;20025;-72
2023/07/04 10:20:17;;;;;;;5.43;1.70;;;18.50;99.90;;;;;;5049946;28;20360;-72
2023/07/04 10:22:51;;;;;;;2.97;1.23;;;18.30;99.90;;;;;;5050972;28;20403;-72
2023/07/04 10:25:21;;;;;;;5.03;1.50;;;18.30;99.90;;;;;;5050123;28;20130;-72
2023/07/04 10:27:54;;;;;;;4.15;1.75;;;18.50;99.90;;;;;;5050053;28;20037;-73
2023/07/04 10:30:30;;;;;;;2.83;1.17;;;18.50;99.90;;;;;;5050122;28;20045;-72
2023/07/04 10:33:16;;;;;;;5.15;1.70;;;18.50;99.90;;;;;;5050288;28;20029;-72
2023/07/04 10:35:45;;;;;;;3.40;1.40;;;18.60;99.90;;;;;;5050160;28;20051;-72
2023/07/04 10:38:45;;;;;;;3.85;1.23;;;18.50;99.90;;;;;;5049319;28;20025;-72
2023/07/04 10:41:25;;;;;;;5.05;1.60;;;18.50;99.90;;;;;;5045494;28;20122;-72
2023/07/04 10:44:03;;;;;;;3.63;1.50;;;18.70;99.90;;;;;;5048654;28;20349;-72
2023/07/04 10:46:39;;;;;;;3.60;1.30;;;18.90;99.90;;;;;;5048208;28;20033;-72
2023/07/04 10:49:09;;;;;;;4.25;1.70;;;19.10;99.90;;;;;;5048586;28;20029;-73
2023/07/04 10:51:39;;;;;;;5.07;1.50;;;19.40;99.90;;;;;;5047384;28;20127;-72
2023/07/04 10:54:08;;;;;;;4.25;1.52;;;19.60;99.90;;;;;;5048569;28;20053;-72
2023/07/04 10:56:36;;;;;;;3.05;1.40;;;19.70;99.90;;;;;;5048148;28;20033;-71
2023/07/04 10:59:15;;;;;;;7.45;1.67;;;19.60;99.90;;;;;;5046962;28;20033;-72
2023/07/04 11:01:51;;;;;;;4.13;1.40;;;19.60;99.90;;;;;;5048524;28;20028;-71
2023/07/04 11:04:31;;;;;;;3.10;1.30;;;19.60;99.90;;;;;;5046709;28;20059;-72
2023/07/04 11:07:17;;;;;;;3.75;1.40;;;19.30;99.90;;;;;;5048954;28;20029;-72
2023/07/04 11:09:43;;;;;;;2.50;1.30;;;19.20;99.90;;;;;;5040688;28;20081;-72
2023/07/04 11:12:15;;;;;;;4.00;1.30;;;18.90;99.90;;;;;;5048698;28;20486;-73
2023/07/04 11:14:44;;;;;;;3.90;1.15;;;18.70;99.90;;;;;;5050902;28;20446;-73
2023/07/04 11:17:17;;;;;;;3.38;1.35;;;18.70;99.90;;;;;;5050611;28;20125;-74
2023/07/04 11:20:11;;;;;;;3.88;1.25;;;18.50;99.90;;;;;;5052723;28;20043;-72
2023/07/04 11:22:57;;;;;;;2.40;1.20;;;18.60;99.90;;;;;;5052728;28;20052;-73
2023/07/04 11:25:27;;;;;;;3.63;1.80;;;18.70;99.90;;;;;;5052039;28;20044;-73
2023/07/04 11:28:27;;;;;;;3.53;1.33;;;19.00;99.90;;;;;;5052646;28;20132;-72
2023/07/04 11:31:11;;;;;;;4.25;1.27;;;19.20;99.90;;;;;;5052944;28;20049;-73
2023/07/04 11:33:49;;;;;;;5.07;1.77;;;19.40;99.90;;;;;;5052299;28;20029;-73
2023/07/04 11:36:23;;;;;;;4.40;1.40;;;19.50;99.90;;;;;;5053107;28;20028;-73
2023/07/04 11:38:56;;;;;;;2.35;1.30;;;19.60;99.90;;;;;;5053219;28;20103;-73
2023/07/04 11:41:37;;;;;;;1.85;0.95;;;19.80;99.90;;;;;;5052560;28;20172;-73
2023/07/04 11:44:21;;;;;;;2.85;1.50;;;20.00;99.90;;;;;;5053008;28;20482;-73
2023/07/04 11:47:05;;;;;;;4.25;1.38;;;20.20;99.90;;;;;;5053174;28;20064;-73
2023/07/04 11:49:33;;;;;;;3.13;1.30;;;20.30;99.90;;;;;;5052659;28;20021;-73
2023/07/04 11:52:27;;;;;;;3.50;1.17;;;20.30;99.90;;;;;;5052794;28;20111;-73
2023/07/04 11:55:00;;;;;;;5.57;1.40;;;20.30;99.90;;;;;;5051566;28;20045;-73
2023/07/04 11:57:59;;;;;;;3.38;1.40;;;20.20;99.90;;;;;;5052461;28;20040;-73
2023/07/04 12:00:44;;;;;;;3.03;1.20;;;19.80;99.90;;;;;;5052467;28;20112;-73
2023/07/04 12:03:22;;;;;;;2.42;1.30;;;19.60;99.90;;;;;;5052757;28;20031;-73
2023/07/04 12:05:54;;;;;;;3.95;1.20;;;19.50;99.90;;;;;;5053096;28;20525;-73
2023/07/04 12:08:32;;;;;;;3.00;1.20;;;19.40;99.90;;;;;;5052910;28;20040;-73
2023/07/04 12:11:07;;;;;;;3.63;1.35;;;19.50;99.90;;;;;;5053582;28;20040;-73
2023/07/04 12:13:36;;;;;;;2.42;1.08;;;19.80;99.90;;;;;;5052844;28;20116;-72
2023/07/04 12:16:05;;;;;;;2.10;1.10;;;20.00;99.90;;;;;;5052918;28;20035;-73
2023/07/04 12:18:34;;;;;;;4.10;1.30;;;20.30;99.90;;;;;;5052652;28;20419;-73
2023/07/04 12:21:00;;;;;;;1.88;0.93;;;20.50;99.90;;;;;;5052531;28;20049;-73
2023/07/04 12:23:26;;;;;;;1.38;0.90;;;20.60;99.90;;;;;;5050659;28;20097;-73
2023/07/04 12:25:55;;;;;;;3.67;1.10;;;20.60;99.90;;;;;;5052509;28;20427;-73
2023/07/04 12:28:25;;;;;;;5.15;1.40;;;20.70;99.90;;;;;;5051638;28;20064;-73
2023/07/04 12:30:54;;;;;;;3.88;1.38;;;20.80;99.90;;;;;;5051719;28;20056;-73
2023/07/04 12:33:25;;;;;;;2.90;1.40;;;20.50;99.90;;;;;;5051184;28;20060;-73
2023/07/04 12:35:58;;;;;;;4.07;1.30;;;20.30;99.90;;;;;;5049721;28;20032;-73
2023/07/04 12:38:27;;;;;;;2.92;1.33;;;20.20;99.90;;;;;;5051228;28;20040;-73
2023/07/04 12:40:54;;;;;;;4.05;1.55;;;20.20;99.90;;;;;;5052702;28;20104;-74
2023/07/04 12:43:21;;;;;;;2.70;1.63;;;20.10;99.90;;;;;;5051974;28;20017;-74
2023/07/04 12:45:47;;;;;;;3.45;1.50;;;20.00;99.90;;;;;;5052729;28;20037;-72
2023/07/04 12:48:14;;;;;;;4.53;1.52;;;20.00;99.90;;;;;;5052252;28;20434;-73
2023/07/04 12:50:48;;;;;;;4.28;1.45;;;20.10;99.90;;;;;;5052472;28;20029;-72
2023/07/04 12:53:15;;;;;;;4.88;1.70;;;20.20;99.90;;;;;;5052132;28;20083;-73
2023/07/04 12:55:42;;;;;;;3.47;1.67;;;20.20;99.90;;;;;;5052424;28;20037;-72
2023/07/04 12:58:13;;;;;;;3.10;1.38;;;20.10;99.90;;;;;;5052141;28;20036;-72